Latest Coastal Weather Observations for Williamtown

IDN60701

Issued at 11:31 pm EST Friday 22 September 2017 (issued every 10 minutes, with the page automatically refreshed every 10 minutes)

About coastal observations | Map of coastal stations | Coastal observations for NSW | Marine services | Other Formats
Station Details ID: 061078 Name: WILLIAMTOWN RAAF Lat: -32.79 Lon: 151.84 Height: 7.5 m
Data from the previous 72 hours. | See also: Recent months at Williamtown
Date/Time
EST
Temp
°C
Wind Pressure Rain since
9am
mm
Weather Cloud Vis
km
Sea
Height
m
Swell
Dir  Spd
kts
Gust
kts
hPa Trend Height
m
Period
s
Dir
22/11:30pm 14.8 CALM 0 0 1011.7 - 0.0 - Clear 10 - - - -
22/11:00pm 17.2 NNE 3 5 1011.6 - 0.0 - - 10 - - - -
22/10:30pm 18.0 N 4 5 1011.8 - 0.0 - - 10 - - - -
22/10:00pm 18.9 N 6 8 1011.9 - 0.0 - - 10 - - - -
22/09:30pm 19.4 N 7 9 1012.1 - 0.0 - - 10 - - - -
22/09:00pm 20.1 NNE 8 10 1012.1 R 0.0 - - 10 - - - -
22/08:30pm 19.7 NNE 6 9 1012.1 - 0.0 - - 10 - - - -
22/08:00pm 20.5 NNE 6 8 1012.0 - 0.0 - - 10 - - - -
22/07:30pm 21.1 NNE 7 9 1011.7 - 0.0 - - 10 - - - -
22/07:00pm 21.2 NE 8 11 1011.4 - 0.0 - - 10 - - - -
22/06:30pm 22.0 NE 9 13 1011.0 - 0.0 - - 10 - - - -
22/06:00pm 22.9 NE 11 15 1010.7 F 0.0 - - 10 - - - -
22/05:30pm 23.5 ENE 7 10 1010.6 - 0.0 - - 10 - - - -
22/05:00pm 24.8 NE 9 12 1010.6 - 0.0 - - 10 - - - -
22/04:30pm 25.8 ENE 12 16 1010.4 - 0.0 - - 10 - - - -
22/04:00pm 26.8 NE 13 16 1010.4 - 0.0 - - 10 - - - -
22/03:45pm 27.5 ENE 13 18 1010.4 - 0.0 - - 10 - - - -
22/03:30pm 30.5 N 6 9 1010.3 - 0.0 - - 10 - - - -
22/03:00pm 30.8 NW 7 11 1010.4 F 0.0 - - 10 - - - -
22/02:30pm 30.5 WNW 8 15 1010.5 - 0.0 - - 10 - - - -
22/02:00pm 30.2 WNW 12 18 1010.9 - 0.0 - - 10 - - - -
22/01:30pm 29.6 WNW 12 18 1011.1 - 0.0 - - 10 - - - -
22/01:00pm 29.9 WNW 12 19 1011.4 - 0.0 - - 10 - - - -
22/12:30pm 29.3 NW 12 16 1011.8 - 0.0 - - 10 - - - -
22/12:00pm 28.6 NW 12 19 1012.4 F 0.0 - - 10 - - - -
22/11:30am 27.3 NW 10 16 1013.2 - 0.0 - - 10 - - - -
22/11:00am 26.2 NW 8 11 1013.8 - 0.0 - - 10 - - - -
22/10:30am 24.7 NW 7 9 1014.3 - 0.0 - - 10 - - - -
22/10:00am 22.7 NW 7 9 1014.7 - 0.0 - - 10 - - - -
22/09:30am 20.9 WNW 8 9 1015.1 - 0.0 - - 10 - - - -
22/09:00am 19.7 WNW 8 10 1015.3 R 0.0 - - 10 - - - -
22/08:30am 18.1 NW 9 11 1015.5 - 0.0 - - 10 - - - -
22/08:00am 16.6 NW 8 10 1015.5 - 0.0 - - 10 - - - -
22/07:30am 14.6 NW 8 11 1015.3 - 0.0 - - 10 - - - -
22/07:00am 11.8 NNW 4 5 1015.1 - 0.0 - - 10 - - - -
22/06:30am 9.2 NW 4 5 1014.6 - 0.0 - - 10 - - - -
22/06:00am 8.4 NW 3 5 1014.0 F 0.0 - - 10 - - - -
22/05:30am 8.2 NW 5 6 1013.8 - 0.0 - - 10 - - - -
22/05:00am 8.4 NW 4 5 1013.5 - 0.0 - - 10 - - - -
22/04:30am 8.2 NW 5 5 1013.5 - 0.0 - - 10 - - - -
22/04:00am 8.0 CALM 0 2 1013.3 - 0.0 - - 10 - - - -
22/03:30am 8.7 NNW 4 5 1013.2 - 0.0 - - 10 - - - -
22/03:00am 10.1 N 2 5 1013.2 F 0.0 - - 10 - - - -
22/02:30am 10.1 NNW 3 4 1013.5 - 0.0 - - 10 - - - -
22/02:00am 10.8 NW 3 4 1013.7 - 0.0 - - 10 - - - -
22/01:30am 10.1 NW 1 5 1014.0 - 0.0 - - 10 - - - -
22/01:00am 12.8 NNE 6 7 1014.0 - 0.0 - - 10 - - - -
22/12:30am 12.4 CALM 0 0 1014.1 - 0.0 - - 10 - - - -
22/12:00am 11.5 CALM 0 0 1014.1 R 0.0 - - 10 - - - -
 
Date/Time
EST
Temp
°C
Wind Pressure Rain since
9am
mm
Weather Cloud Vis
km
Sea
Height
m
Swell
Dir  Spd
kts
Gust
kts
hPa Trend Height
m
Period
s
Dir
21/11:30pm 11.8 W 2 4 1014.2 - 0.0 - - 10 - - - -
21/11:00pm 14.2 NNW 1 3 1014.0 - 0.0 - - 10 - - - -
21/10:30pm 14.9 CALM 0 0 1014.1 - 0.0 - - 10 - - - -
21/10:00pm 17.2 NNE 6 7 1014.1 - 0.0 - - 10 - - - -
21/09:30pm 17.5 NNE 8 9 1014.1 - 0.0 - - 10 - - - -
21/09:00pm 17.6 NNE 7 8 1014.2 S 0.0 - - 10 - - - -
21/08:30pm 18.5 NNE 8 10 1014.2 - 0.0 - - 10 - - - -
21/08:00pm 18.4 NNE 7 9 1014.2 - 0.0 - - 10 - - - -
21/07:30pm 18.4 NE 7 9 1013.9 - 0.0 - - 10 - - - -
21/07:00pm 18.9 NE 8 10 1013.7 - 0.0 - - 10 - - - -
21/06:30pm 19.4 ENE 7 10 1013.2 - 0.0 - - 10 - - - -
21/06:15pm 19.5 ENE 7 9 1013.1 - 0.0 - - 10 - - - -
21/06:00pm 20.0 ENE 7 9 1012.9 F 0.0 - - 10 - - - -
21/05:30pm 21.0 ENE 8 11 1012.6 - 0.0 - - 10 - - - -
21/05:00pm 22.1 ENE 10 14 1012.6 - 0.0 - - 10 - - - -
21/04:30pm 23.4 ENE 10 15 1012.5 - 0.0 - - 10 - - - -
21/04:00pm 24.2 ENE 11 14 1012.4 - 0.0 - - 10 - - - -
21/03:30pm 24.5 ESE 7 10 1012.5 - 0.0 - - 10 - - - -
21/03:00pm 24.2 ESE 9 10 1012.6 F 0.0 - - 10 - - - -
21/02:30pm 24.6 SE 9 15 1012.7 - 0.0 - - 10 - - - -
21/02:00pm 26.7 WNW 5 9 1013.0 - 0.0 - - 10 - - - -
21/01:30pm 26.0 NW 5 9 1013.5 - 0.0 - - 10 - - - -
21/01:00pm 25.6 NW 6 9 1014.0 - 0.0 - - 10 - - - -
21/12:30pm 25.0 NNW 6 9 1014.6 - 0.0 - - 10 - - - -
21/12:00pm 23.8 NNW 7 10 1015.0 F 0.0 - - 10 - - - -
21/11:30am 23.1 N 7 12 1015.5 - 0.0 - - 10 - - - -
21/11:00am 22.0 NNW 6 9 1016.0 - 0.0 - - 10 - - - -
21/10:30am 19.7 N 7 10 1016.5 - 0.0 - - 10 - - - -
21/10:00am 18.4 NNW 6 8 1016.9 - 0.0 - - 10 - - - -
21/09:30am 16.8 NW 7 9 1017.2 - 0.0 - - 10 - - - -
21/09:00am 15.2 NW 7 9 1017.3 F 0.0 - - 10 - - - -
21/08:30am 13.9 NW 8 10 1017.5 - 0.0 - - 10 - - - -
21/08:00am 11.9 NW 6 8 1017.6 - 0.0 - - 10 - - - -
21/07:30am 10.2 NW 7 8 1017.7 - 0.0 - - 10 - - - -
21/07:00am 9.0 WNW 6 7 1017.6 - 0.0 - - 10 - - - -
21/06:30am 7.8 NW 3 4 1017.4 - 0.0 - - 10 - - - -
21/06:00am 7.4 NW 5 6 1017.3 F 0.0 - - 10 - - - -
21/05:30am 7.2 WNW 7 7 1017.1 - 0.0 - - 10 - - - -
21/05:00am 7.8 NW 6 7 1016.9 - 0.0 - - 10 - - - -
21/04:30am 7.7 NW 5 5 1016.7 - 0.0 - - 10 - - - -
21/04:00am 7.2 NW 5 6 1016.7 - 0.0 - - 10 - - - -
21/03:30am 8.2 WSW 5 5 1016.6 - 0.0 - - 10 - - - -
21/03:00am 8.1 WSW 5 5 1016.6 F 0.0 - - 10 - - - -
21/02:30am 7.6 WSW 4 5 1016.8 - 0.0 - - 10 - - - -
21/02:00am 7.7 CALM 0 0 1016.7 - 0.0 - - 10 - - - -
21/01:30am 8.3 CALM 0 0 1016.8 - 0.0 - - 10 - - - -
21/01:00am 9.4 N 2 4 1017.0 - 0.0 - - 10 - - - -
21/12:30am 8.6 NNW 4 5 1017.3 - 0.0 - - 10 - - - -
21/12:00am 8.9 N 4 4 1017.6 R 0.0 - - 10 - - - -
 
Date/Time
EST
Temp
°C
Wind Pressure Rain since
9am
mm
Weather Cloud Vis
km
Sea
Height
m
Swell
Dir  Spd
kts
Gust
kts
hPa Trend Height
m
Period
s
Dir
20/11:30pm 8.6 NNE 4 4 1018.0 - 0.0 - - 10 - - - -
20/11:00pm 9.4 CALM 0 1 1018.4 - 0.0 - - 10 - - - -
20/10:30pm 9.4 NNE 2 4 1018.4 - 0.0 - - 10 - - - -
20/10:00pm 9.6 CALM 0 0 1018.7 - 0.0 - - 10 - - - -
20/09:30pm 9.6 CALM 0 0 1018.7 - 0.0 - - 10 - - - -
20/09:00pm 10.6 CALM 0 0 1018.6 F 0.0 - - 10 - - - -
20/08:30pm 11.9 CALM 0 0 1018.6 - 0.0 - - 10 - - - -
20/08:00pm 11.8 CALM 0 2 1018.6 - 0.0 - - 10 - - - -
20/07:30pm 13.7 NE 3 5 1018.4 - 0.0 - - 10 - - - -
20/07:00pm 14.1 NE 3 5 1018.2 - 0.0 - - 10 - - - -
20/06:30pm 14.8 ENE 5 7 1017.8 - 0.0 - - 10 - - - -
20/06:00pm 15.5 ENE 6 8 1017.4 F 0.0 - - 10 - - - -
20/05:30pm 16.2 E 6 8 1017.4 - 0.0 - - 10 - - - -
20/05:00pm 16.9 E 8 11 1017.2 - 0.0 - - 10 - - - -
20/04:30pm 17.5 E 8 11 1017.1 - 0.0 - - 10 - - - -
20/04:00pm 17.7 ESE 10 14 1016.9 - 0.0 - Mostly clear 10 - - - -
20/03:30pm 17.9 SE 10 14 1016.7 - 0.0 - Mostly clear 10 - - - -
20/03:00pm 18.2 ESE 9 14 1016.7 F 0.0 - Mostly clear 10 - - - -
20/02:30pm 18.2 SE 11 15 1017.1 - 0.0 - Mostly clear 10 - - - -
20/02:00pm 18.2 SE 11 14 1017.5 - 0.0 - Mostly clear 10 - - - -
20/01:30pm 18.5 ESE 9 13 1018.0 - 0.0 - Mostly clear 10 - - - -
20/01:00pm 18.9 SSE 10 15 1018.5 - 0.0 - Mostly clear 10 - - - -
20/12:30pm 18.0 SSE 8 11 1019.0 - 0.0 - Mostly clear 10 - - - -
20/12:00pm 18.3 ESE 7 10 1019.4 F 0.0 - Mostly clear 10 - - - -
20/11:30am 18.9 SE 7 13 1020.0 - 0.0 - Mostly clear 10 - - - -
20/11:00am 18.5 S 8 13 1020.4 - 0.0 - Mostly clear 10 - - - -
20/10:30am 18.3 SSE 8 12 1020.7 - 0.0 - Mostly clear 10 - - - -
20/10:00am 17.6 SSE 5 7 1021.0 - 0.0 - Mostly clear 10 - - - -
20/09:30am 16.6 WSW 5 8 1021.1 - 0.0 - Mostly clear 10 - - - -
20/09:00am 16.1 W 6 9 1021.3 F 0.0 - Mostly clear 10 - - - -
20/08:30am 14.7 W 7 9 1021.4 - 0.0 - Mostly clear 10 - - - -
20/08:00am 13.5 WNW 8 10 1021.1 - 0.0 - Mostly clear 10 - - - -
20/07:30am 11.5 WNW 8 10 1021.0 - 0.0 - Mostly clear 10 - - - -
20/07:00am 9.4 NW 8 9 1021.0 - 0.0 - Mostly clear 10 - - - -
20/06:30am 7.4 NW 7 8 1020.7 - 0.0 - - 10 - - - -
20/06:00am 6.6 NW 7 8 1020.3 F 0.0 - - 10 - - - -
20/05:30am 6.5 NW 5 6 1020.2 - 0.0 - - 10 - - - -
20/05:00am 6.8 NW 5 5 1019.9 - 0.0 - - 10 - - - -
20/04:30am 6.8 NW 5 6 1019.6 - 0.0 - - 10 - - - -
20/04:00am 7.3 WNW 6 7 1019.6 - 0.0 - - 10 - - - -
20/03:30am 7.5 WNW 6 6 1019.6 - 0.0 - - 10 - - - -
20/03:00am 8.2 WNW 5 6 1019.7 R 0.0 - - 10 - - - -
20/02:30am 8.6 WSW 7 7 1019.8 - 0.0 - - 10 - - - -
20/02:00am 8.6 WSW 5 6 1019.9 - 0.0 - - 10 - - - -
20/01:30am 10.0 WSW 5 5 1020.1 - 0.0 - - 10 - - - -
20/01:00am 11.3 WSW 4 5 1020.2 - 0.0 - - 10 - - - -
20/12:30am 12.6 SW 7 10 1020.1 - 0.0 - - 10 - - - -
20/12:00am 13.4 SSW 8 12 1019.8 R 0.0 - - 10 - - - -

Other Formats:

Comma delimited format used in spreadsheet applications
http://www.bom.gov.au/fwo/IDN60701/IDN60701.94776.axf

JavaScript Object Notation format (JSON) in row-major order
http://www.bom.gov.au/fwo/IDN60701/IDN60701.94776.json